Time;durP1;ratioP1;P1;durP2;ratioP2;P2;SDS_P1;SDS_P2;PMS_P1;PMS_P2;Temp;Humidity;BMP_temperature;BMP_pressure;BME280_temperature;BME280_humidity;BME280_pressure;Samples;Min_cycle;Max_cycle;Signal;HPM_P1;HPM_P2
2022/04/13 00:01:09;;;;;;;18.65;6.28;;;;;;;;;;4957972;28;95205;-66
2022/04/13 00:03:36;;;;;;;12.93;5.25;;;;;;;;;;4956169;28;92378;-66
2022/04/13 00:06:03;;;;;;;15.27;5.15;;;;;;;;;;4955995;28;93959;-67
2022/04/13 00:08:29;;;;;;;13.50;5.40;;;;;;;;;;4954618;28;93218;-66
2022/04/13 00:10:56;;;;;;;21.75;6.07;;;;;;;;;;4956528;28;92459;-67
2022/04/13 00:13:22;;;;;;;7.43;4.90;;;;;;;;;;4963053;28;94196;-67
2022/04/13 00:15:48;;;;;;;15.82;5.30;;;;;;;;;;4956138;28;93393;-67
2022/04/13 00:18:15;;;;;;;17.23;6.05;;;;;;;;;;4957202;28;92306;-67
2022/04/13 00:20:41;;;;;;;15.63;5.43;;;;;;;;;;4953859;28;95009;-66
2022/04/13 00:23:07;;;;;;;14.32;6.20;;;;;;;;;;4956307;28;93451;-66
2022/04/13 00:25:34;;;;;;;9.80;5.20;;;;;;;;;;4953960;28;94944;-67
2022/04/13 00:28:00;;;;;;;10.68;5.60;;;;;;;;;;4956310;28;93417;-66
2022/04/13 00:30:27;;;;;;;12.77;6.10;;;;;;;;;;4956382;28;93113;-66
2022/04/13 00:32:53;;;;;;;13.15;5.03;;;;;;;;;;4956648;28;93131;-67
2022/04/13 00:35:20;;;;;;;10.55;5.35;;;;;;;;;;4955718;28;93421;-66
2022/04/13 00:37:46;;;;;;;14.13;5.95;;;;;;;;;;4956444;28;92434;-67
2022/04/13 00:40:12;;;;;;;10.30;6.00;;;;;;;;;;4956602;28;93143;-65
2022/04/13 00:42:39;;;;;;;14.10;6.00;;;;;;;;;;4959284;28;91761;-66
2022/04/13 00:45:05;;;;;;;9.65;5.22;;;;;;;;;;4956662;28;92555;-66
2022/04/13 00:47:34;;;;;;;11.73;5.00;;;;;;;;;;4956098;28;93885;-66
2022/04/13 00:50:00;;;;;;;9.05;4.63;;;;;;;;;;4945294;28;94961;-67
2022/04/13 00:52:27;;;;;;;11.45;5.38;;;;;;;;;;4955994;28;95193;-66
2022/04/13 00:54:54;;;;;;;7.93;4.63;;;;;;;;;;4955967;28;93575;-66
2022/04/13 00:57:21;;;;;;;10.02;4.70;;;;;;;;;;4955706;28;93788;-67
2022/04/13 00:59:48;;;;;;;11.45;4.65;;;;;;;;;;4955928;28;92970;-66
2022/04/13 01:02:15;;;;;;;21.80;5.05;;;;;;;;;;4955395;28;94522;-66
2022/04/13 01:04:43;;;;;;;11.98;4.40;;;;;;;;;;4959274;28;92490;-66
2022/04/13 01:07:09;;;;;;;12.10;4.28;;;;;;;;;;4955512;28;93741;-66
2022/04/13 01:09:36;;;;;;;14.73;5.10;;;;;;;;;;4955371;28;92415;-66
2022/04/13 01:12:03;;;;;;;12.90;4.50;;;;;;;;;;4955644;28;93329;-66
2022/04/13 01:14:30;;;;;;;7.45;4.75;;;;;;;;;;4953337;28;96818;-66
2022/04/13 01:16:56;;;;;;;11.88;5.47;;;;;;;;;;4955752;28;92508;-66
2022/04/13 01:19:22;;;;;;;12.40;4.80;;;;;;;;;;4955762;28;93333;-66
2022/04/13 01:21:58;;;;;;;11.93;4.68;;;;;;;;;;4955705;28;93522;-66
2022/04/13 01:24:24;;;;;;;15.93;5.15;;;;;;;;;;4955845;28;92510;-66
2022/04/13 01:26:51;;;;;;;9.30;4.80;;;;;;;;;;4958253;28;92960;-67
2022/04/13 01:29:17;;;;;;;14.98;4.53;;;;;;;;;;4955358;28;92469;-66
2022/04/13 01:31:44;;;;;;;10.40;4.30;;;;;;;;;;4956184;28;93070;-66
2022/04/13 01:34:10;;;;;;;7.15;3.90;;;;;;;;;;4955432;28;92700;-67
2022/04/13 01:36:37;;;;;;;8.45;4.35;;;;;;;;;;4954917;28;92429;-66
2022/04/13 01:39:04;;;;;;;11.85;4.25;;;;;;;;;;4953597;28;95201;-66
2022/04/13 01:41:30;;;;;;;7.78;4.07;;;;;;;;;;4954198;28;94486;-66
2022/04/13 01:43:57;;;;;;;7.50;4.38;;;;;;;;;;4954778;28;93284;-67
2022/04/13 01:46:23;;;;;;;22.58;5.40;;;;;;;;;;4955824;28;92909;-66
2022/04/13 01:48:50;;;;;;;12.40;4.25;;;;;;;;;;4958291;28;94376;-66
2022/04/13 01:51:20;;;;;;;11.65;4.75;;;;;;;;;;4955521;28;93695;-66
2022/04/13 01:53:48;;;;;;;10.80;4.30;;;;;;;;;;4955304;28;93600;-67
2022/04/13 01:56:14;;;;;;;11.50;4.60;;;;;;;;;;4955725;28;91816;-67
2022/04/13 01:58:40;;;;;;;8.60;4.47;;;;;;;;;;4955343;28;93297;-67
2022/04/13 02:01:07;;;;;;;10.93;4.35;;;;;;;;;;4954628;28;94489;-67
2022/04/13 02:03:33;;;;;;;8.65;4.93;;;;;;;;;;4955537;28;94922;-66
2022/04/13 02:05:59;;;;;;;16.98;4.93;;;;;;;;;;4955229;28;96664;-66
2022/04/13 02:08:26;;;;;;;9.65;4.30;;;;;;;;;;4954461;28;92539;-66
2022/04/13 02:10:52;;;;;;;7.45;4.53;;;;;;;;;;4957596;28;92656;-66
2022/04/13 02:13:21;;;;;;;12.15;5.22;;;;;;;;;;4954147;28;93075;-66
2022/04/13 02:15:48;;;;;;;11.43;4.95;;;;;;;;;;4954306;28;92518;-66
2022/04/13 02:18:15;;;;;;;10.68;5.22;;;;;;;;;;4954816;28;93110;-67
2022/04/13 02:20:41;;;;;;;15.25;5.15;;;;;;;;;;4955172;28;92603;-66
2022/04/13 02:23:07;;;;;;;11.75;5.78;;;;;;;;;;4952502;28;92701;-66
2022/04/13 02:25:35;;;;;;;11.85;5.70;;;;;;;;;;4954647;28;93226;-66
2022/04/13 02:28:02;;;;;;;14.15;5.85;;;;;;;;;;4953154;28;96038;-66
2022/04/13 02:30:29;;;;;;;14.00;5.38;;;;;;;;;;4955453;28;92451;-66
2022/04/13 02:32:55;;;;;;;10.02;5.28;;;;;;;;;;4957131;28;93278;-66
2022/04/13 02:35:22;;;;;;;12.40;5.80;;;;;;;;;;4954803;28;92651;-66
2022/04/13 02:37:48;;;;;;;11.07;4.80;;;;;;;;;;4954482;28;93293;-66
2022/04/13 02:40:14;;;;;;;8.27;5.00;;;;;;;;;;4954478;28;93196;-67
2022/04/13 02:42:41;;;;;;;7.72;4.50;;;;;;;;;;4952811;28;92933;-66
2022/04/13 02:45:08;;;;;;;14.55;5.18;;;;;;;;;;4954780;28;93217;-66
2022/04/13 02:47:35;;;;;;;16.08;6.47;;;;;;;;;;4954280;28;94367;-66
2022/04/13 02:50:01;;;;;;;11.57;6.05;;;;;;;;;;4954733;28;92510;-66
2022/04/13 02:52:28;;;;;;;13.48;5.22;;;;;;;;;;4955819;28;94802;-66
2022/04/13 02:54:55;;;;;;;14.77;5.80;;;;;;;;;;4954304;28;92483;-66
2022/04/13 02:57:21;;;;;;;11.13;5.60;;;;;;;;;;4954025;28;93023;-66
2022/04/13 02:59:49;;;;;;;17.63;6.57;;;;;;;;;;4954213;28;93240;-66
2022/04/13 03:02:15;;;;;;;12.55;6.10;;;;;;;;;;4953949;28;92607;-66
2022/04/13 03:04:43;;;;;;;9.65;6.22;;;;;;;;;;4954714;28;92895;-66
2022/04/13 03:07:10;;;;;;;11.48;6.53;;;;;;;;;;4953529;28;93243;-66
2022/04/13 03:09:37;;;;;;;16.83;6.00;;;;;;;;;;4954526;28;91816;-66
2022/04/13 03:12:03;;;;;;;13.57;6.55;;;;;;;;;;4953396;28;92521;-66
2022/04/13 03:14:29;;;;;;;12.90;6.97;;;;;;;;;;4957088;28;94081;-65
2022/04/13 03:16:56;;;;;;;13.65;7.50;;;;;;;;;;4961094;28;94762;-66
2022/04/13 03:19:22;;;;;;;15.77;7.00;;;;;;;;;;4969681;28;93538;-67
2022/04/13 03:21:51;;;;;;;12.65;7.13;;;;;;;;;;4953898;28;92724;-65
2022/04/13 03:24:18;;;;;;;13.45;6.95;;;;;;;;;;4946878;28;93169;-66
2022/04/13 03:26:44;;;;;;;16.10;6.82;;;;;;;;;;4956442;28;93492;-66
2022/04/13 03:29:10;;;;;;;19.42;7.60;;;;;;;;;;4957489;28;92512;-65
2022/04/13 03:31:37;;;;;;;18.08;7.28;;;;;;;;;;4957867;28;92964;-66
2022/04/13 03:34:03;;;;;;;16.88;8.25;;;;;;;;;;4958094;28;92562;-66
2022/04/13 03:36:29;;;;;;;26.70;10.93;;;;;;;;;;4960252;28;92559;-66
2022/04/13 03:38:55;;;;;;;28.23;15.30;;;;;;;;;;4956476;28;93264;-66
2022/04/13 03:41:22;;;;;;;25.92;9.68;;;;;;;;;;4954289;28;94897;-65
2022/04/13 03:43:48;;;;;;;22.13;12.48;;;;;;;;;;4957417;28;95587;-66
2022/04/13 03:46:14;;;;;;;18.42;9.63;;;;;;;;;;4957096;28;93433;-66
2022/04/13 03:48:41;;;;;;;21.02;11.63;;;;;;;;;;4957193;28;92623;-66
2022/04/13 03:51:07;;;;;;;22.60;12.98;;;;;;;;;;4955902;28;93261;-66
2022/04/13 03:53:33;;;;;;;20.17;13.90;;;;;;;;;;4956042;28;93073;-66
2022/04/13 03:55:59;;;;;;;27.38;14.52;;;;;;;;;;4946547;28;92583;-66
2022/04/13 03:58:27;;;;;;;30.50;16.45;;;;;;;;;;4959730;28;93193;-66
2022/04/13 04:00:54;;;;;;;31.42;19.38;;;;;;;;;;4956602;28;92426;-66
2022/04/13 04:03:20;;;;;;;32.60;15.95;;;;;;;;;;4956276;28;93350;-66
2022/04/13 04:05:46;;;;;;;26.63;15.98;;;;;;;;;;4954896;28;95953;-66
2022/04/13 04:08:12;;;;;;;24.27;16.75;;;;;;;;;;4955240;28;92505;-66
2022/04/13 04:10:39;;;;;;;25.80;16.08;;;;;;;;;;4955291;28;92854;-66
2022/04/13 04:13:06;;;;;;;32.65;16.73;;;;;;;;;;4955725;28;94062;-66
2022/04/13 04:15:32;;;;;;;26.13;16.00;;;;;;;;;;4956402;28;92439;-66
2022/04/13 04:17:59;;;;;;;26.60;15.13;;;;;;;;;;4954119;28;93067;-66
2022/04/13 04:20:25;;;;;;;22.67;15.80;;;;;;;;;;4959011;28;94229;-66
2022/04/13 04:22:51;;;;;;;28.50;15.07;;;;;;;;;;4955916;28;92229;-66
2022/04/13 04:25:17;;;;;;;29.85;15.45;;;;;;;;;;4956173;28;94495;-67
2022/04/13 04:27:44;;;;;;;24.88;15.10;;;;;;;;;;4956052;28;92467;-66
2022/04/13 04:30:10;;;;;;;26.63;15.00;;;;;;;;;;4954409;28;94806;-66
2022/04/13 04:32:36;;;;;;;26.35;14.88;;;;;;;;;;4955175;28;93458;-66
2022/04/13 04:35:04;;;;;;;25.40;13.55;;;;;;;;;;4954843;28;94197;-66
2022/04/13 04:37:30;;;;;;;23.50;14.38;;;;;;;;;;4954145;28;93653;-66
2022/04/13 04:39:56;;;;;;;27.95;14.18;;;;;;;;;;4955452;28;92558;-66
2022/04/13 04:42:22;;;;;;;26.42;14.13;;;;;;;;;;4956308;28;92461;-66
2022/04/13 04:44:53;;;;;;;20.73;12.77;;;;;;;;;;4955469;28;92516;-66
2022/04/13 04:47:19;;;;;;;20.55;13.77;;;;;;;;;;4955168;28;92058;-66
2022/04/13 04:49:46;;;;;;;23.60;13.10;;;;;;;;;;4954578;28;92460;-66
2022/04/13 04:52:12;;;;;;;27.27;12.43;;;;;;;;;;4955470;28;93643;-66
2022/04/13 04:54:38;;;;;;;27.35;12.98;;;;;;;;;;4949451;28;95208;-66
2022/04/13 04:57:04;;;;;;;27.90;11.52;;;;;;;;;;4953543;28;95493;-66
2022/04/13 04:59:31;;;;;;;24.90;12.00;;;;;;;;;;4955149;28;93450;-66
2022/04/13 05:01:57;;;;;;;27.83;12.02;;;;;;;;;;4957565;28;92468;-66
2022/04/13 05:04:23;;;;;;;18.10;11.57;;;;;;;;;;4955512;28;94701;-66
2022/04/13 05:06:50;;;;;;;22.80;11.63;;;;;;;;;;4955017;28;92439;-66
2022/04/13 05:09:18;;;;;;;19.83;12.35;;;;;;;;;;4963304;28;94297;-66
2022/04/13 05:11:45;;;;;;;22.63;12.10;;;;;;;;;;4954885;28;92773;-66
2022/04/13 05:14:11;;;;;;;33.45;12.77;;;;;;;;;;4954568;28;92964;-66
2022/04/13 05:16:37;;;;;;;23.15;12.60;;;;;;;;;;4955540;28;93199;-66
2022/04/13 05:19:04;;;;;;;19.60;11.73;;;;;;;;;;4953027;28;95801;-66
2022/04/13 05:21:30;;;;;;;30.08;11.73;;;;;;;;;;4954302;28;92587;-66
2022/04/13 05:23:56;;;;;;;25.95;12.30;;;;;;;;;;4957407;28;94046;-65
2022/04/13 05:26:23;;;;;;;27.45;12.60;;;;;;;;;;4955149;28;92454;-66
2022/04/13 05:28:49;;;;;;;22.35;12.68;;;;;;;;;;4954097;28;92511;-66
2022/04/13 05:31:15;;;;;;;25.52;12.55;;;;;;;;;;4954369;28;93090;-66
2022/04/13 05:33:41;;;;;;;25.45;12.98;;;;;;;;;;4953128;28;92472;-66
2022/04/13 05:36:08;;;;;;;26.58;14.20;;;;;;;;;;4954925;28;93131;-66
2022/04/13 05:38:34;;;;;;;29.10;14.27;;;;;;;;;;4954531;28;93494;-66
2022/04/13 05:41:00;;;;;;;21.67;12.85;;;;;;;;;;4954743;28;92472;-66
2022/04/13 05:43:28;;;;;;;23.55;13.73;;;;;;;;;;4953428;28;94854;-66
2022/04/13 05:45:55;;;;;;;28.75;14.88;;;;;;;;;;4957830;28;93165;-66
2022/04/13 05:48:21;;;;;;;31.33;13.75;;;;;;;;;;4954533;28;94252;-66
2022/04/13 05:50:47;;;;;;;29.83;14.30;;;;;;;;;;4954949;28;93438;-66
2022/04/13 05:53:14;;;;;;;32.30;14.70;;;;;;;;;;4954699;28;92503;-66
2022/04/13 05:55:40;;;;;;;24.85;14.50;;;;;;;;;;4955317;28;93977;-66
2022/04/13 05:58:06;;;;;;;24.67;14.43;;;;;;;;;;4954976;28;93486;-64
2022/04/13 06:00:32;;;;;;;26.10;14.00;;;;;;;;;;4955449;28;91676;-65
2022/04/13 06:02:59;;;;;;;32.13;14.75;;;;;;;;;;4954569;28;92533;-65
2022/04/13 06:05:26;;;;;;;26.48;14.43;;;;;;;;;;4954252;28;94412;-65
2022/04/13 06:07:53;;;;;;;26.38;13.93;;;;;;;;;;4955868;28;95087;-64
2022/04/13 06:10:20;;;;;;;35.50;14.57;;;;;;;;;;4954865;28;93128;-65
2022/04/13 06:12:47;;;;;;;29.63;14.38;;;;;;;;;;4954143;28;92523;-65
2022/04/13 06:15:13;;;;;;;27.02;14.13;;;;;;;;;;4954887;28;94311;-65
2022/04/13 06:17:40;;;;;;;29.17;14.63;;;;;;;;;;4954032;28;94431;-65
2022/04/13 06:20:07;;;;;;;29.92;15.27;;;;;;;;;;4954702;28;92879;-64
2022/04/13 06:22:37;;;;;;;23.63;15.02;;;;;;;;;;4954480;28;94475;-65
2022/04/13 06:25:03;;;;;;;29.48;15.45;;;;;;;;;;4954750;28;92630;-65
2022/04/13 06:27:30;;;;;;;28.20;16.10;;;;;;;;;;4954249;28;92425;-65
2022/04/13 06:29:56;;;;;;;31.23;16.50;;;;;;;;;;4957169;28;93383;-66
2022/04/13 06:32:35;;;;;;;30.60;16.67;;;;;;;;;;4953067;28;94783;-65
2022/04/13 06:35:03;;;;;;;23.55;15.68;;;;;;;;;;4953902;28;95405;-65
2022/04/13 06:37:34;;;;;;;30.38;16.42;;;;;;;;;;4952810;28;92678;-65
2022/04/13 06:40:01;;;;;;;44.63;18.13;;;;;;;;;;4954230;28;92830;-66
2022/04/13 06:42:27;;;;;;;41.40;17.52;;;;;;;;;;4952782;28;93202;-65
2022/04/13 06:44:54;;;;;;;43.53;17.55;;;;;;;;;;4951135;28;93892;-65
2022/04/13 06:47:20;;;;;;;33.13;16.17;;;;;;;;;;4954387;28;92779;-64
2022/04/13 06:49:47;;;;;;;29.60;15.13;;;;;;;;;;4957458;28;93218;-63
2022/04/13 06:52:14;;;;;;;33.97;15.60;;;;;;;;;;4954592;28;92689;-63
2022/04/13 06:54:41;;;;;;;29.33;15.63;;;;;;;;;;4953894;28;93210;-65
2022/04/13 06:57:07;;;;;;;26.85;15.20;;;;;;;;;;4951924;28;95858;-64
2022/04/13 06:59:34;;;;;;;32.40;15.13;;;;;;;;;;4954044;28;92773;-65
2022/04/13 07:02:00;;;;;;;31.17;15.00;;;;;;;;;;4953273;28;92983;-64
2022/04/13 07:04:27;;;;;;;28.15;13.77;;;;;;;;;;4953668;28;93645;-64
2022/04/13 07:06:53;;;;;;;24.48;13.63;;;;;;;;;;4952930;28;92675;-65
2022/04/13 07:09:20;;;;;;;29.10;12.20;;;;;;;;;;4953362;28;93009;-63
2022/04/13 07:11:47;;;;;;;17.35;10.43;;;;;;;;;;4956788;28;93455;-64
2022/04/13 07:14:13;;;;;;;18.55;10.43;;;;;;;;;;4953414;28;93241;-65
2022/04/13 07:16:40;;;;;;;21.48;10.77;;;;;;;;;;4953615;28;93093;-63
2022/04/13 07:19:06;;;;;;;18.35;10.00;;;;;;;;;;4953588;28;92436;-64
2022/04/13 07:21:33;;;;;;;18.60;9.80;;;;;;;;;;4951810;28;94755;-64
2022/04/13 07:24:19;;;;;;;22.33;11.25;;;;;;;;;;4953373;28;94694;-65
2022/04/13 07:26:45;;;;;;;20.23;11.00;;;;;;;;;;4952500;28;93079;-65
2022/04/13 07:29:11;;;;;;;17.52;10.05;;;;;;;;;;4952538;28;93273;-63
2022/04/13 07:31:38;;;;;;;22.77;11.02;;;;;;;;;;4953753;28;93368;-65
2022/04/13 07:34:04;;;;;;;17.48;10.75;;;;;;;;;;4956399;28;92502;-65
2022/04/13 07:36:31;;;;;;;19.88;10.80;;;;;;;;;;4953388;28;93359;-64
2022/04/13 07:38:57;;;;;;;19.67;10.90;;;;;;;;;;4944307;28;92434;-65
2022/04/13 07:41:23;;;;;;;31.05;10.10;;;;;;;;;;4953627;28;92827;-65
2022/04/13 07:43:49;;;;;;;19.17;10.48;;;;;;;;;;4951590;28;94548;-64
2022/04/13 07:46:16;;;;;;;22.83;9.63;;;;;;;;;;4951076;28;94938;-65
2022/04/13 07:48:42;;;;;;;17.17;9.73;;;;;;;;;;4965577;28;95599;-64
2022/04/13 07:51:08;;;;;;;23.70;11.10;;;;;;;;;;4973865;28;93473;-64
2022/04/13 07:53:34;;;;;;;20.08;10.50;;;;;;;;;;4967003;28;92446;-65
2022/04/13 07:56:01;;;;;;;17.20;9.23;;;;;;;;;;4955443;28;92978;-64
2022/04/13 07:58:27;;;;;;;16.00;9.80;;;;;;;;;;4954060;28;92780;-64
2022/04/13 08:00:53;;;;;;;21.02;10.60;;;;;;;;;;4953655;28;92950;-64
2022/04/13 08:03:20;;;;;;;18.05;10.25;;;;;;;;;;4953688;28;92399;-64
2022/04/13 08:06:02;;;;;;;22.48;12.00;;;;;;;;;;4953189;28;92381;-65
2022/04/13 08:08:29;;;;;;;26.42;11.48;;;;;;;;;;4952587;28;93250;-64
2022/04/13 08:10:55;;;;;;;19.38;11.00;;;;;;;;;;4951181;28;96870;-64
2022/04/13 08:13:21;;;;;;;21.13;9.52;;;;;;;;;;4954465;28;92415;-65
2022/04/13 08:16:07;;;;;;;18.88;10.90;;;;;;;;;;4956688;28;92946;-64
2022/04/13 08:18:37;;;;;;;18.93;10.33;;;;;;;;;;4958665;28;93167;-64
2022/04/13 08:21:04;;;;;;;24.40;8.27;;;;;;;;;;4956599;28;93208;-64
2022/04/13 08:23:30;;;;;;;15.52;9.68;;;;;;;;;;4955911;28;94529;-65
2022/04/13 08:25:56;;;;;;;19.08;10.38;;;;;;;;;;4954886;28;92597;-64
2022/04/13 08:28:22;;;;;;;18.42;9.15;;;;;;;;;;4956295;28;93939;-63
2022/04/13 08:30:49;;;;;;;15.20;8.43;;;;;;;;;;4956732;28;93438;-65
2022/04/13 08:33:15;;;;;;;15.90;7.72;;;;;;;;;;4956822;28;92443;-66
2022/04/13 08:35:41;;;;;;;18.67;9.02;;;;;;;;;;4953582;28;94869;-64
2022/04/13 08:38:08;;;;;;;22.13;9.77;;;;;;;;;;4956393;28;93201;-64
2022/04/13 08:40:38;;;;;;;19.60;6.38;;;;;;;;;;4973892;28;92694;-63
2022/04/13 08:43:07;;;;;;;13.27;5.82;;;;;;;;;;4955841;28;93287;-65
2022/04/13 08:45:34;;;;;;;;;;;;;;;;;;4957320;28;92408;-64
2022/04/13 08:48:02;;;;;;;12.80;6.28;;;;;;;;;;4957110;28;124154;-64
2022/04/13 08:50:29;;;;;;;8.63;5.00;;;;;;;;;;4955096;28;93634;-65
2022/04/13 08:52:59;;;;;;;15.23;4.60;;;;;;;;;;4942204;28;91892;-65
2022/04/13 08:55:27;;;;;;;11.88;6.78;;;;;;;;;;4952381;28;93322;-63
2022/04/13 08:57:56;;;;;;;15.82;6.25;;;;;;;;;;4955962;28;93619;-64
2022/04/13 09:00:24;;;;;;;14.77;6.43;;;;;;;;;;4955452;28;95094;-64
2022/04/13 09:03:09;;;;;;;11.98;6.32;;;;;;;;;;4953965;28;93466;-63
2022/04/13 09:05:46;;;;;;;7.97;2.92;;;;;;;;;;4955721;28;92461;-64
2022/04/13 09:08:36;;;;;;;9.98;3.97;;;;;;;;;;4956507;28;93207;-65
2022/04/13 09:11:04;;;;;;;9.70;5.40;;;;;;;;;;4950173;28;92382;-64
2022/04/13 09:13:32;;;;;;;11.52;5.57;;;;;;;;;;4956298;28;92464;-65
2022/04/13 09:15:59;;;;;;;11.73;4.53;;;;;;;;;;4956809;28;94156;-64
2022/04/13 09:18:26;;;;;;;9.95;3.25;;;;;;;;;;4953409;28;93778;-65
2022/04/13 09:20:52;;;;;;;10.63;3.75;;;;;;;;;;4955229;28;92609;-65
2022/04/13 09:23:19;;;;;;;10.02;3.80;;;;;;;;;;4956912;28;93958;-64
2022/04/13 09:25:46;;;;;;;9.23;4.07;;;;;;;;;;4953904;28;95101;-65
2022/04/13 09:28:12;;;;;;;10.18;4.47;;;;;;;;;;4955440;28;95381;-65
2022/04/13 09:30:38;;;;;;;14.32;4.07;;;;;;;;;;4955208;28;93466;-65
2022/04/13 09:33:05;;;;;;;8.77;4.07;;;;;;;;;;4955813;28;92509;-65
2022/04/13 09:35:32;;;;;;;15.65;4.82;;;;;;;;;;4956459;28;94185;-65
2022/04/13 09:38:05;;;;;;;8.15;4.07;;;;;;;;;;4956335;28;93556;-65
2022/04/13 09:40:35;;;;;;;11.57;3.92;;;;;;;;;;4955722;28;92812;-65
2022/04/13 09:43:04;;;;;;;10.25;4.00;;;;;;;;;;4955831;28;95011;-65
2022/04/13 09:45:50;;;;;;;10.88;4.97;;;;;;;;;;4959097;28;94460;-65
2022/04/13 09:48:18;;;;;;;14.82;5.70;;;;;;;;;;4955608;28;93257;-65
2022/04/13 09:50:45;;;;;;;14.88;5.25;;;;;;;;;;4953393;28;95450;-65
2022/04/13 09:53:12;;;;;;;17.10;5.85;;;;;;;;;;4955542;28;92421;-65
2022/04/13 09:55:43;;;;;;;20.20;6.72;;;;;;;;;;4948194;28;93099;-65
2022/04/13 09:58:12;;;;;;;12.50;5.93;;;;;;;;;;4955738;28;93224;-65
2022/04/13 10:00:39;;;;;;;14.20;6.18;;;;;;;;;;4954789;28;92504;-64
2022/04/13 10:03:07;;;;;;;17.40;6.75;;;;;;;;;;4955710;28;93279;-65
2022/04/13 10:05:33;;;;;;;11.52;5.05;;;;;;;;;;4955652;28;94444;-63
2022/04/13 10:08:01;;;;;;;12.43;5.43;;;;;;;;;;4958051;28;94310;-63
2022/04/13 10:10:28;;;;;;;15.68;4.78;;;;;;;;;;4954780;28;93198;-64
2022/04/13 10:12:55;;;;;;;15.50;4.88;;;;;;;;;;4955972;28;92435;-65
2022/04/13 10:15:21;;;;;;;15.40;4.82;;;;;;;;;;4954091;28;94869;-64
2022/04/13 10:17:48;;;;;;;16.42;5.13;;;;;;;;;;4954757;28;93601;-64
2022/04/13 10:20:14;;;;;;;11.95;4.05;;;;;;;;;;4953598;28;92408;-64
2022/04/13 10:22:59;;;;;;;11.43;4.80;;;;;;;;;;4955530;28;94392;-65
2022/04/13 10:25:27;;;;;;;10.43;3.65;;;;;;;;;;4951792;28;93491;-64
2022/04/13 10:27:54;;;;;;;11.10;4.03;;;;;;;;;;4955249;28;92499;-64
2022/04/13 10:30:26;;;;;;;16.92;4.22;;;;;;;;;;4958034;28;94238;-64
2022/04/13 10:32:59;;;;;;;14.63;4.32;;;;;;;;;;4956210;28;92050;-64
2022/04/13 10:35:26;;;;;;;11.40;3.67;;;;;;;;;;4953893;28;92483;-64
2022/04/13 10:37:54;;;;;;;9.88;3.45;;;;;;;;;;4954866;28;93508;-64
2022/04/13 10:40:21;;;;;;;8.23;2.92;;;;;;;;;;4953494;28;94899;-64
2022/04/13 10:42:50;;;;;;;10.73;3.38;;;;;;;;;;4955404;28;95697;-64
2022/04/13 10:45:17;;;;;;;16.45;4.60;;;;;;;;;;4954644;28;93265;-64
2022/04/13 10:47:52;;;;;;;18.23;5.60;;;;;;;;;;4954407;28;93672;-65
2022/04/13 10:50:30;;;;;;;14.80;5.13;;;;;;;;;;4954448;28;93341;-64
2022/04/13 10:53:05;;;;;;;16.67;5.95;;;;;;;;;;4957638;28;93613;-64
2022/04/13 10:55:33;;;;;;;19.90;5.82;;;;;;;;;;4954561;28;93077;-63
2022/04/13 10:58:02;;;;;;;24.23;5.72;;;;;;;;;;4954783;28;92646;-64
2022/04/13 11:00:31;;;;;;;12.98;5.43;;;;;;;;;;4953936;28;92548;-65
2022/04/13 11:02:58;;;;;;;18.27;6.55;;;;;;;;;;4954496;28;93205;-66
2022/04/13 11:05:25;;;;;;;16.92;6.40;;;;;;;;;;4952459;28;95757;-66
2022/04/13 11:08:10;;;;;;;24.30;7.03;;;;;;;;;;4954318;28;92914;-65
2022/04/13 11:10:37;;;;;;;17.25;5.60;;;;;;;;;;4954370;28;92424;-65
2022/04/13 11:13:04;;;;;;;15.05;5.78;;;;;;;;;;4957201;28;93468;-64
2022/04/13 11:15:42;;;;;;;18.58;6.10;;;;;;;;;;4955279;28;92934;-65
2022/04/13 11:18:10;;;;;;;12.38;5.20;;;;;;;;;;4954276;28;93550;-65
2022/04/13 11:20:37;;;;;;;17.77;6.35;;;;;;;;;;4954510;28;92430;-65
2022/04/13 11:23:13;;;;;;;14.10;6.80;;;;;;;;;;4954632;28;93370;-65
2022/04/13 11:25:51;;;;;;;19.88;7.72;;;;;;;;;;4952303;28;93155;-64
2022/04/13 11:28:34;;;;;;;21.75;6.70;;;;;;;;;;4975486;28;92572;-64
2022/04/13 11:31:02;;;;;;;18.58;6.80;;;;;;;;;;4972366;28;94855;-65
2022/04/13 11:33:54;;;;;;;18.40;6.03;;;;;;;;;;4962098;28;94066;-64
2022/04/13 11:36:23;;;;;;;20.17;7.07;;;;;;;;;;4954232;28;92742;-64
2022/04/13 11:39:11;;;;;;;18.98;6.13;;;;;;;;;;4953694;28;93381;-65
2022/04/13 11:41:48;;;;;;;18.70;6.30;;;;;;;;;;4952993;28;92650;-65
2022/04/13 11:44:15;;;;;;;13.75;6.50;;;;;;;;;;4954296;28;94288;-65
2022/04/13 11:46:43;;;;;;;18.98;6.22;;;;;;;;;;4955503;28;94214;-64
2022/04/13 11:49:10;;;;;;;18.80;6.03;;;;;;;;;;4957957;28;91677;-64
2022/04/13 11:51:37;;;;;;;19.02;6.25;;;;;;;;;;4956551;28;92396;-64
2022/04/13 11:54:07;;;;;;;16.52;5.85;;;;;;;;;;4957154;28;93305;-64
2022/04/13 11:56:35;;;;;;;21.30;7.03;;;;;;;;;;4949290;28;94882;-63
2022/04/13 11:59:02;;;;;;;16.63;6.35;;;;;;;;;;4959217;28;95770;-63
2022/04/13 12:01:28;;;;;;;14.35;5.28;;;;;;;;;;4957672;28;92550;-64
2022/04/13 12:03:55;;;;;;;11.45;4.47;;;;;;;;;;4957212;28;93044;-64
2022/04/13 12:06:24;;;;;;;16.40;5.43;;;;;;;;;;4956597;28;93523;-63
2022/04/13 12:08:50;;;;;;;16.45;5.97;;;;;;;;;;4957433;28;92474;-63
2022/04/13 12:11:18;;;;;;;19.80;5.45;;;;;;;;;;4956947;28;93315;-63
2022/04/13 12:13:44;;;;;;;13.77;5.45;;;;;;;;;;4957203;28;93023;-64
2022/04/13 12:16:15;;;;;;;15.30;5.60;;;;;;;;;;4957147;28;92563;-63
2022/04/13 12:18:41;;;;;;;18.40;6.03;;;;;;;;;;4956584;28;93297;-64
2022/04/13 12:21:11;;;;;;;13.60;4.93;;;;;;;;;;4958098;28;95574;-63
2022/04/13 12:23:38;;;;;;;18.25;5.22;;;;;;;;;;4956731;28;95349;-65
2022/04/13 12:26:06;;;;;;;20.80;5.45;;;;;;;;;;4956271;28;93442;-63
2022/04/13 12:28:33;;;;;;;16.25;5.53;;;;;;;;;;4957241;28;92610;-63
2022/04/13 12:31:00;;;;;;;13.77;5.88;;;;;;;;;;4957038;28;92964;-64
2022/04/13 12:33:27;;;;;;;21.98;6.38;;;;;;;;;;4956329;28;93518;-64
2022/04/13 12:36:01;;;;;;;26.85;7.32;;;;;;;;;;4956903;28;92481;-63
2022/04/13 12:38:29;;;;;;;19.92;6.60;;;;;;;;;;4956471;28;93251;-62
2022/04/13 12:41:07;;;;;;;13.63;6.65;;;;;;;;;;4956559;28;93463;-64
2022/04/13 12:43:34;;;;;;;18.50;7.28;;;;;;;;;;4959073;28;92419;-63
2022/04/13 12:46:13;;;;;;;17.65;7.25;;;;;;;;;;4944372;28;95798;-63
2022/04/13 12:48:40;;;;;;;15.48;7.40;;;;;;;;;;4956933;28;92467;-61
2022/04/13 12:51:07;;;;;;;26.48;7.88;;;;;;;;;;4956699;28;93152;-62
2022/04/13 12:53:44;;;;;;;17.58;7.88;;;;;;;;;;4956803;28;94279;-62
2022/04/13 12:56:13;;;;;;;16.20;6.28;;;;;;;;;;4956679;28;94377;-63
2022/04/13 12:58:39;;;;;;;16.58;5.78;;;;;;;;;;4953883;28;93006;-64
2022/04/13 13:01:06;;;;;;;10.38;5.45;;;;;;;;;;4955019;28;93515;-63
2022/04/13 13:03:40;;;;;;;15.98;5.80;;;;;;;;;;4967573;28;91646;-64
2022/04/13 13:06:10;;;;;;;16.92;5.65;;;;;;;;;;4961083;28;93510;-62
2022/04/13 13:08:49;;;;;;;11.10;4.38;;;;;;;;;;4955264;28;92528;-63
2022/04/13 13:11:20;;;;;;;15.07;5.55;;;;;;;;;;4954741;28;95076;-61
2022/04/13 13:13:46;;;;;;;12.32;4.95;;;;;;;;;;4955600;28;94557;-64
2022/04/13 13:16:29;;;;;;;10.60;4.57;;;;;;;;;;4955400;28;92466;-63
2022/04/13 13:19:07;;;;;;;13.75;4.72;;;;;;;;;;4956541;28;93288;-63
2022/04/13 13:21:33;;;;;;;16.35;4.60;;;;;;;;;;4956247;28;94301;-65
2022/04/13 13:24:00;;;;;;;14.00;4.40;;;;;;;;;;4955441;28;93367;-64
2022/04/13 13:26:26;;;;;;;14.20;3.75;;;;;;;;;;4959289;28;94266;-64
2022/04/13 13:28:52;;;;;;;9.75;3.58;;;;;;;;;;4956658;28;91729;-64
2022/04/13 13:31:24;;;;;;;8.63;3.75;;;;;;;;;;4955167;28;93031;-64
2022/04/13 13:33:51;;;;;;;9.77;3.45;;;;;;;;;;4955632;28;94503;-63
2022/04/13 13:36:18;;;;;;;8.30;3.35;;;;;;;;;;4953285;28;94866;-64
2022/04/13 13:38:48;;;;;;;11.07;3.63;;;;;;;;;;4955582;28;95333;-65
2022/04/13 13:41:14;;;;;;;9.93;3.10;;;;;;;;;;4955712;28;93528;-64
2022/04/13 13:43:41;;;;;;;10.90;3.05;;;;;;;;;;4955789;28;92581;-64
2022/04/13 13:46:14;;;;;;;6.78;2.63;;;;;;;;;;4955874;28;93287;-64
2022/04/13 13:48:41;;;;;;;9.38;2.85;;;;;;;;;;4956224;28;94479;-65
2022/04/13 13:51:08;;;;;;;8.02;2.55;;;;;;;;;;4954449;28;93731;-64
2022/04/13 13:53:34;;;;;;;13.52;3.15;;;;;;;;;;4955798;28;92744;-64
2022/04/13 13:56:01;;;;;;;11.35;2.72;;;;;;;;;;4941566;28;92473;-64
2022/04/13 13:58:27;;;;;;;9.10;2.50;;;;;;;;;;4953238;28;93381;-66
2022/04/13 14:00:53;;;;;;;6.63;2.22;;;;;;;;;;4954112;28;95581;-65
2022/04/13 14:03:20;;;;;;;7.45;2.15;;;;;;;;;;4955849;28;92463;-63
2022/04/13 14:05:46;;;;;;;11.70;2.72;;;;;;;;;;4954969;28;93134;-63
2022/04/13 14:08:13;;;;;;;7.40;2.67;;;;;;;;;;4953833;28;94806;-63
2022/04/13 14:10:41;;;;;;;10.40;3.10;;;;;;;;;;4958803;28;92418;-65
2022/04/13 14:13:08;;;;;;;7.53;2.80;;;;;;;;;;4955515;28;92956;-64
2022/04/13 14:15:35;;;;;;;8.65;2.92;;;;;;;;;;4956189;28;92540;-64
2022/04/13 14:18:02;;;;;;;7.65;3.13;;;;;;;;;;4955303;28;94156;-64
2022/04/13 14:20:28;;;;;;;11.88;2.88;;;;;;;;;;4955027;28;94143;-64
2022/04/13 14:22:55;;;;;;;9.77;3.10;;;;;;;;;;4955635;28;92464;-64
2022/04/13 14:25:23;;;;;;;8.18;3.40;;;;;;;;;;4953037;28;94942;-64
2022/04/13 14:27:52;;;;;;;6.20;3.03;;;;;;;;;;4955314;28;93425;-64
2022/04/13 14:30:20;;;;;;;12.25;3.97;;;;;;;;;;4955608;28;92453;-64
2022/04/13 14:32:47;;;;;;;10.65;4.72;;;;;;;;;;4958147;28;93177;-64